sensor_id;sensor_type;location;lat;lon;timestamp;P1;durP1;ratioP1;P2;durP2;ratioP2
15990;SDS011;8100;50.994;4.538;2023-07-29T00:00:21;1.10;;;1.00;;
15990;SDS011;8100;50.994;4.538;2023-07-29T00:03:08;2.60;;;1.30;;
15990;SDS011;8100;50.994;4.538;2023-07-29T00:05:55;1.70;;;1.27;;
15990;SDS011;8100;50.994;4.538;2023-07-29T00:08:44;2.00;;;1.13;;
15990;SDS011;8100;50.994;4.538;2023-07-29T00:11:31;2.42;;;1.17;;
15990;SDS011;8100;50.994;4.538;2023-07-29T00:14:19;1.38;;;1.08;;
15990;SDS011;8100;50.994;4.538;2023-07-29T00:17:06;2.33;;;1.00;;
15990;SDS011;8100;50.994;4.538;2023-07-29T00:19:53;2.28;;;0.88;;
15990;SDS011;8100;50.994;4.538;2023-07-29T00:22:40;1.33;;;0.90;;
15990;SDS011;8100;50.994;4.538;2023-07-29T00:25:29;2.15;;;1.00;;
15990;SDS011;8100;50.994;4.538;2023-07-29T00:28:16;1.92;;;1.10;;
15990;SDS011;8100;50.994;4.538;2023-07-29T00:31:04;1.27;;;0.80;;
15990;SDS011;8100;50.994;4.538;2023-07-29T00:33:51;1.80;;;0.75;;
15990;SDS011;8100;50.994;4.538;2023-07-29T00:36:38;0.82;;;0.80;;
15990;SDS011;8100;50.994;4.538;2023-07-29T00:39:25;0.73;;;0.60;;
15990;SDS011;8100;50.994;4.538;2023-07-29T00:42:14;1.70;;;1.00;;
15990;SDS011;8100;50.994;4.538;2023-07-29T00:45:01;1.48;;;0.90;;
15990;SDS011;8100;50.994;4.538;2023-07-29T00:47:51;2.75;;;1.05;;
15990;SDS011;8100;50.994;4.538;2023-07-29T00:50:38;1.00;;;0.80;;
15990;SDS011;8100;50.994;4.538;2023-07-29T00:53:26;2.25;;;0.82;;
15990;SDS011;8100;50.994;4.538;2023-07-29T00:56:13;0.93;;;0.73;;
15990;SDS011;8100;50.994;4.538;2023-07-29T00:59:02;1.08;;;0.80;;
15990;SDS011;8100;50.994;4.538;2023-07-29T01:01:50;1.77;;;0.93;;
15990;SDS011;8100;50.994;4.538;2023-07-29T01:04:38;4.22;;;0.93;;
15990;SDS011;8100;50.994;4.538;2023-07-29T01:07:27;1.17;;;0.88;;
15990;SDS011;8100;50.994;4.538;2023-07-29T01:10:20;1.00;;;0.70;;
15990;SDS011;8100;50.994;4.538;2023-07-29T01:13:17;0.80;;;0.70;;
15990;SDS011;8100;50.994;4.538;2023-07-29T01:16:12;1.02;;;0.80;;
15990;SDS011;8100;50.994;4.538;2023-07-29T01:19:04;1.55;;;0.90;;
15990;SDS011;8100;50.994;4.538;2023-07-29T01:21:53;1.23;;;0.80;;
15990;SDS011;8100;50.994;4.538;2023-07-29T01:24:43;0.93;;;0.88;;
15990;SDS011;8100;50.994;4.538;2023-07-29T01:27:31;2.05;;;0.90;;
15990;SDS011;8100;50.994;4.538;2023-07-29T01:30:18;1.60;;;0.90;;
15990;SDS011;8100;50.994;4.538;2023-07-29T01:33:09;1.02;;;0.82;;
15990;SDS011;8100;50.994;4.538;2023-07-29T01:36:01;1.42;;;0.70;;
15990;SDS011;8100;50.994;4.538;2023-07-29T01:38:54;1.45;;;0.82;;
15990;SDS011;8100;50.994;4.538;2023-07-29T01:41:44;1.67;;;0.90;;
15990;SDS011;8100;50.994;4.538;2023-07-29T01:44:32;1.55;;;0.88;;
15990;SDS011;8100;50.994;4.538;2023-07-29T01:47:20;1.45;;;1.00;;
15990;SDS011;8100;50.994;4.538;2023-07-29T01:50:08;2.70;;;1.10;;
15990;SDS011;8100;50.994;4.538;2023-07-29T01:52:56;1.20;;;0.95;;
15990;SDS011;8100;50.994;4.538;2023-07-29T01:55:43;1.08;;;0.80;;
15990;SDS011;8100;50.994;4.538;2023-07-29T01:58:32;0.85;;;0.80;;
15990;SDS011;8100;50.994;4.538;2023-07-29T02:01:19;1.38;;;0.93;;
15990;SDS011;8100;50.994;4.538;2023-07-29T02:04:06;2.42;;;1.00;;
15990;SDS011;8100;50.994;4.538;2023-07-29T02:06:54;2.30;;;1.00;;
15990;SDS011;8100;50.994;4.538;2023-07-29T02:09:41;1.00;;;0.77;;
15990;SDS011;8100;50.994;4.538;2023-07-29T02:12:28;1.40;;;1.08;;
15990;SDS011;8100;50.994;4.538;2023-07-29T02:15:17;2.10;;;0.98;;
15990;SDS011;8100;50.994;4.538;2023-07-29T02:18:05;1.80;;;0.90;;
15990;SDS011;8100;50.994;4.538;2023-07-29T02:20:52;1.80;;;1.10;;
15990;SDS011;8100;50.994;4.538;2023-07-29T02:23:39;2.85;;;1.10;;
15990;SDS011;8100;50.994;4.538;2023-07-29T02:26:27;1.27;;;0.80;;
15990;SDS011;8100;50.994;4.538;2023-07-29T02:29:14;1.48;;;1.00;;
15990;SDS011;8100;50.994;4.538;2023-07-29T02:32:03;1.50;;;1.13;;
15990;SDS011;8100;50.994;4.538;2023-07-29T02:34:50;1.80;;;1.00;;
15990;SDS011;8100;50.994;4.538;2023-07-29T02:37:37;3.17;;;1.02;;
15990;SDS011;8100;50.994;4.538;2023-07-29T02:40:24;1.55;;;0.95;;
15990;SDS011;8100;50.994;4.538;2023-07-29T02:43:12;2.50;;;1.08;;
15990;SDS011;8100;50.994;4.538;2023-07-29T02:45:59;2.35;;;0.90;;
15990;SDS011;8100;50.994;4.538;2023-07-29T02:48:48;1.45;;;1.08;;
15990;SDS011;8100;50.994;4.538;2023-07-29T02:51:35;2.70;;;1.33;;
15990;SDS011;8100;50.994;4.538;2023-07-29T02:54:23;1.23;;;1.10;;
15990;SDS011;8100;50.994;4.538;2023-07-29T02:57:10;1.33;;;1.15;;
15990;SDS011;8100;50.994;4.538;2023-07-29T02:59:57;2.15;;;1.20;;
15990;SDS011;8100;50.994;4.538;2023-07-29T03:02:44;1.55;;;1.05;;
15990;SDS011;8100;50.994;4.538;2023-07-29T03:05:33;1.35;;;0.85;;
15990;SDS011;8100;50.994;4.538;2023-07-29T03:08:20;2.13;;;1.10;;
15990;SDS011;8100;50.994;4.538;2023-07-29T03:11:08;2.80;;;1.20;;
15990;SDS011;8100;50.994;4.538;2023-07-29T03:13:57;1.70;;;1.00;;
15990;SDS011;8100;50.994;4.538;2023-07-29T03:16:44;0.82;;;0.82;;
15990;SDS011;8100;50.994;4.538;2023-07-29T03:19:31;2.15;;;1.02;;
15990;SDS011;8100;50.994;4.538;2023-07-29T03:22:20;1.33;;;0.90;;
15990;SDS011;8100;50.994;4.538;2023-07-29T03:25:07;1.25;;;0.88;;
15990;SDS011;8100;50.994;4.538;2023-07-29T03:27:55;2.47;;;1.10;;
15990;SDS011;8100;50.994;4.538;2023-07-29T03:30:42;1.83;;;1.00;;
15990;SDS011;8100;50.994;4.538;2023-07-29T03:33:29;1.67;;;1.02;;
15990;SDS011;8100;50.994;4.538;2023-07-29T03:36:16;1.10;;;1.00;;
15990;SDS011;8100;50.994;4.538;2023-07-29T03:39:06;1.25;;;1.00;;
15990;SDS011;8100;50.994;4.538;2023-07-29T03:41:53;1.70;;;1.05;;
15990;SDS011;8100;50.994;4.538;2023-07-29T03:44:41;1.17;;;0.88;;
15990;SDS011;8100;50.994;4.538;2023-07-29T03:47:28;1.50;;;0.93;;
15990;SDS011;8100;50.994;4.538;2023-07-29T03:50:15;1.75;;;0.90;;
15990;SDS011;8100;50.994;4.538;2023-07-29T03:53:03;1.92;;;1.00;;
15990;SDS011;8100;50.994;4.538;2023-07-29T03:55:52;2.50;;;0.93;;
15990;SDS011;8100;50.994;4.538;2023-07-29T03:58:39;1.02;;;0.90;;
15990;SDS011;8100;50.994;4.538;2023-07-29T04:01:26;1.55;;;1.10;;
15990;SDS011;8100;50.994;4.538;2023-07-29T04:04:14;1.70;;;0.77;;
15990;SDS011;8100;50.994;4.538;2023-07-29T04:07:01;2.30;;;1.15;;
15990;SDS011;8100;50.994;4.538;2023-07-29T04:09:48;2.00;;;0.93;;
15990;SDS011;8100;50.994;4.538;2023-07-29T04:12:37;1.20;;;1.00;;
15990;SDS011;8100;50.994;4.538;2023-07-29T04:15:24;3.28;;;1.20;;
15990;SDS011;8100;50.994;4.538;2023-07-29T04:18:11;1.50;;;0.82;;
15990;SDS011;8100;50.994;4.538;2023-07-29T04:20:59;2.33;;;1.10;;
15990;SDS011;8100;50.994;4.538;2023-07-29T04:23:46;1.52;;;1.00;;
15990;SDS011;8100;50.994;4.538;2023-07-29T04:26:33;1.88;;;1.10;;
15990;SDS011;8100;50.994;4.538;2023-07-29T04:29:22;2.45;;;1.02;;
15990;SDS011;8100;50.994;4.538;2023-07-29T04:32:09;3.22;;;1.13;;
15990;SDS011;8100;50.994;4.538;2023-07-29T04:34:56;3.30;;;1.00;;
15990;SDS011;8100;50.994;4.538;2023-07-29T04:37:43;1.55;;;1.00;;
15990;SDS011;8100;50.994;4.538;2023-07-29T04:40:32;1.92;;;1.10;;
15990;SDS011;8100;50.994;4.538;2023-07-29T04:43:20;1.35;;;0.77;;
15990;SDS011;8100;50.994;4.538;2023-07-29T04:46:08;1.38;;;0.80;;
15990;SDS011;8100;50.994;4.538;2023-07-29T04:48:55;1.10;;;0.98;;
15990;SDS011;8100;50.994;4.538;2023-07-29T04:51:42;1.40;;;1.00;;
15990;SDS011;8100;50.994;4.538;2023-07-29T04:54:30;3.08;;;1.05;;
15990;SDS011;8100;50.994;4.538;2023-07-29T04:57:17;1.13;;;0.82;;
15990;SDS011;8100;50.994;4.538;2023-07-29T05:00:04;1.17;;;0.93;;
15990;SDS011;8100;50.994;4.538;2023-07-29T05:02:54;2.60;;;0.90;;
15990;SDS011;8100;50.994;4.538;2023-07-29T05:05:41;1.08;;;0.98;;
15990;SDS011;8100;50.994;4.538;2023-07-29T05:08:28;1.13;;;0.88;;
15990;SDS011;8100;50.994;4.538;2023-07-29T05:11:15;1.20;;;0.90;;
15990;SDS011;8100;50.994;4.538;2023-07-29T05:14:02;1.80;;;1.10;;
15990;SDS011;8100;50.994;4.538;2023-07-29T05:16:51;1.27;;;0.80;;
15990;SDS011;8100;50.994;4.538;2023-07-29T05:19:40;1.58;;;0.98;;
15990;SDS011;8100;50.994;4.538;2023-07-29T05:22:27;1.30;;;0.80;;
15990;SDS011;8100;50.994;4.538;2023-07-29T05:25:14;1.70;;;1.20;;
15990;SDS011;8100;50.994;4.538;2023-07-29T05:28:01;1.63;;;0.90;;
15990;SDS011;8100;50.994;4.538;2023-07-29T05:30:49;1.55;;;1.10;;
15990;SDS011;8100;50.994;4.538;2023-07-29T05:33:36;1.42;;;0.85;;
15990;SDS011;8100;50.994;4.538;2023-07-29T05:36:25;2.40;;;1.00;;
15990;SDS011;8100;50.994;4.538;2023-07-29T05:39:12;2.83;;;0.98;;
15990;SDS011;8100;50.994;4.538;2023-07-29T05:41:59;1.48;;;1.05;;
15990;SDS011;8100;50.994;4.538;2023-07-29T05:44:47;1.33;;;0.85;;
15990;SDS011;8100;50.994;4.538;2023-07-29T05:47:35;1.55;;;0.93;;
15990;SDS011;8100;50.994;4.538;2023-07-29T05:50:22;2.40;;;1.10;;
15990;SDS011;8100;50.994;4.538;2023-07-29T05:53:10;2.33;;;0.98;;
15990;SDS011;8100;50.994;4.538;2023-07-29T05:55:57;1.73;;;0.98;;
15990;SDS011;8100;50.994;4.538;2023-07-29T05:58:45;2.25;;;0.90;;
15990;SDS011;8100;50.994;4.538;2023-07-29T06:01:32;1.55;;;0.90;;
15990;SDS011;8100;50.994;4.538;2023-07-29T06:04:20;1.52;;;1.02;;
15990;SDS011;8100;50.994;4.538;2023-07-29T06:07:07;1.95;;;0.88;;
15990;SDS011;8100;50.994;4.538;2023-07-29T06:09:56;2.35;;;1.00;;
15990;SDS011;8100;50.994;4.538;2023-07-29T06:12:43;0.80;;;0.80;;
15990;SDS011;8100;50.994;4.538;2023-07-29T06:15:30;2.15;;;1.08;;
15990;SDS011;8100;50.994;4.538;2023-07-29T06:18:17;1.75;;;1.13;;
15990;SDS011;8100;50.994;4.538;2023-07-29T06:21:05;2.55;;;0.90;;
15990;SDS011;8100;50.994;4.538;2023-07-29T06:23:53;1.30;;;0.80;;
15990;SDS011;8100;50.994;4.538;2023-07-29T06:26:41;2.60;;;0.82;;
15990;SDS011;8100;50.994;4.538;2023-07-29T06:29:29;1.65;;;0.85;;
15990;SDS011;8100;50.994;4.538;2023-07-29T06:32:16;1.50;;;0.93;;
15990;SDS011;8100;50.994;4.538;2023-07-29T06:35:03;2.15;;;0.80;;
15990;SDS011;8100;50.994;4.538;2023-07-29T06:37:51;1.63;;;1.08;;
15990;SDS011;8100;50.994;4.538;2023-07-29T06:40:38;1.30;;;0.80;;
15990;SDS011;8100;50.994;4.538;2023-07-29T06:43:27;2.17;;;1.10;;
15990;SDS011;8100;50.994;4.538;2023-07-29T06:46:14;1.33;;;0.90;;
15990;SDS011;8100;50.994;4.538;2023-07-29T06:49:01;1.08;;;0.70;;
15990;SDS011;8100;50.994;4.538;2023-07-29T06:51:48;0.90;;;0.80;;
15990;SDS011;8100;50.994;4.538;2023-07-29T06:54:35;1.10;;;0.80;;
15990;SDS011;8100;50.994;4.538;2023-07-29T06:57:23;1.00;;;0.75;;
15990;SDS011;8100;50.994;4.538;2023-07-29T07:00:11;3.05;;;0.98;;
15990;SDS011;8100;50.994;4.538;2023-07-29T07:02:59;2.90;;;0.70;;
15990;SDS011;8100;50.994;4.538;2023-07-29T07:05:46;1.30;;;0.80;;
15990;SDS011;8100;50.994;4.538;2023-07-29T07:08:33;0.80;;;0.80;;
15990;SDS011;8100;50.994;4.538;2023-07-29T07:11:20;1.60;;;0.70;;
15990;SDS011;8100;50.994;4.538;2023-07-29T07:14:08;2.85;;;0.70;;
15990;SDS011;8100;50.994;4.538;2023-07-29T07:16:56;1.65;;;0.65;;
15990;SDS011;8100;50.994;4.538;2023-07-29T07:19:43;2.08;;;1.00;;
15990;SDS011;8100;50.994;4.538;2023-07-29T07:22:31;1.02;;;0.80;;
15990;SDS011;8100;50.994;4.538;2023-07-29T07:25:19;1.13;;;0.52;;
15990;SDS011;8100;50.994;4.538;2023-07-29T07:28:06;1.98;;;0.60;;
15990;SDS011;8100;50.994;4.538;2023-07-29T07:30:53;1.58;;;0.70;;
15990;SDS011;8100;50.994;4.538;2023-07-29T07:33:42;2.13;;;0.80;;
15990;SDS011;8100;50.994;4.538;2023-07-29T07:36:29;0.93;;;0.70;;
15990;SDS011;8100;50.994;4.538;2023-07-29T07:39:17;0.85;;;0.60;;
15990;SDS011;8100;50.994;4.538;2023-07-29T07:42:04;1.38;;;0.75;;
15990;SDS011;8100;50.994;4.538;2023-07-29T07:44:52;1.00;;;0.60;;
15990;SDS011;8100;50.994;4.538;2023-07-29T07:47:39;1.63;;;0.90;;
15990;SDS011;8100;50.994;4.538;2023-07-29T07:50:30;1.70;;;0.65;;
15990;SDS011;8100;50.994;4.538;2023-07-29T07:53:18;1.00;;;0.57;;
15990;SDS011;8100;50.994;4.538;2023-07-29T07:56:05;0.75;;;0.68;;
15990;SDS011;8100;50.994;4.538;2023-07-29T07:58:52;1.45;;;0.80;;
15990;SDS011;8100;50.994;4.538;2023-07-29T08:01:40;0.63;;;0.55;;
15990;SDS011;8100;50.994;4.538;2023-07-29T08:04:27;1.30;;;0.90;;
15990;SDS011;8100;50.994;4.538;2023-07-29T08:07:15;1.35;;;0.82;;
15990;SDS011;8100;50.994;4.538;2023-07-29T08:10:03;1.42;;;0.80;;
15990;SDS011;8100;50.994;4.538;2023-07-29T08:12:50;1.33;;;0.80;;
15990;SDS011;8100;50.994;4.538;2023-07-29T08:15:38;0.98;;;0.88;;
15990;SDS011;8100;50.994;4.538;2023-07-29T08:18:26;1.17;;;0.80;;
15990;SDS011;8100;50.994;4.538;2023-07-29T08:21:14;1.75;;;0.70;;
15990;SDS011;8100;50.994;4.538;2023-07-29T08:24:02;1.10;;;0.82;;
15990;SDS011;8100;50.994;4.538;2023-07-29T08:26:50;2.33;;;0.85;;
15990;SDS011;8100;50.994;4.538;2023-07-29T08:29:37;0.55;;;0.55;;
15990;SDS011;8100;50.994;4.538;2023-07-29T08:32:24;1.10;;;0.70;;
15990;SDS011;8100;50.994;4.538;2023-07-29T08:35:11;0.90;;;0.77;;
15990;SDS011;8100;50.994;4.538;2023-07-29T08:37:59;1.67;;;0.88;;
15990;SDS011;8100;50.994;4.538;2023-07-29T08:40:49;0.90;;;0.70;;
15990;SDS011;8100;50.994;4.538;2023-07-29T08:43:40;1.75;;;0.60;;
15990;SDS011;8100;50.994;4.538;2023-07-29T08:46:31;0.85;;;0.68;;
15990;SDS011;8100;50.994;4.538;2023-07-29T08:49:19;1.52;;;0.90;;
15990;SDS011;8100;50.994;4.538;2023-07-29T08:52:08;1.30;;;0.77;;
15990;SDS011;8100;50.994;4.538;2023-07-29T08:54:56;2.22;;;0.85;;
15990;SDS011;8100;50.994;4.538;2023-07-29T08:57:44;1.48;;;0.63;;
15990;SDS011;8100;50.994;4.538;2023-07-29T09:00:34;0.98;;;0.70;;
15990;SDS011;8100;50.994;4.538;2023-07-29T09:03:21;1.10;;;0.90;;
15990;SDS011;8100;50.994;4.538;2023-07-29T09:06:09;1.10;;;0.80;;
15990;SDS011;8100;50.994;4.538;2023-07-29T09:08:56;1.23;;;1.00;;
15990;SDS011;8100;50.994;4.538;2023-07-29T09:11:45;1.13;;;0.90;;
15990;SDS011;8100;50.994;4.538;2023-07-29T09:14:33;1.30;;;1.00;;
15990;SDS011;8100;50.994;4.538;2023-07-29T09:17:21;1.45;;;1.30;;
15990;SDS011;8100;50.994;4.538;2023-07-29T09:20:09;2.13;;;1.30;;
15990;SDS011;8100;50.994;4.538;2023-07-29T09:22:57;2.42;;;1.30;;
15990;SDS011;8100;50.994;4.538;2023-07-29T09:25:46;3.83;;;1.52;;
15990;SDS011;8100;50.994;4.538;2023-07-29T09:28:34;2.58;;;1.10;;
15990;SDS011;8100;50.994;4.538;2023-07-29T09:31:24;3.45;;;1.20;;
15990;SDS011;8100;50.994;4.538;2023-07-29T09:34:12;1.27;;;1.17;;
15990;SDS011;8100;50.994;4.538;2023-07-29T09:37:02;1.50;;;1.02;;
15990;SDS011;8100;50.994;4.538;2023-07-29T09:39:56;1.95;;;1.25;;
15990;SDS011;8100;50.994;4.538;2023-07-29T09:42:49;1.85;;;1.20;;
15990;SDS011;8100;50.994;4.538;2023-07-29T09:45:37;6.03;;;1.45;;
15990;SDS011;8100;50.994;4.538;2023-07-29T09:48:26;1.58;;;1.10;;
15990;SDS011;8100;50.994;4.538;2023-07-29T09:51:14;1.48;;;1.23;;
15990;SDS011;8100;50.994;4.538;2023-07-29T09:54:02;2.45;;;1.27;;
15990;SDS011;8100;50.994;4.538;2023-07-29T09:56:50;1.88;;;1.20;;
15990;SDS011;8100;50.994;4.538;2023-07-29T09:59:37;4.32;;;1.30;;
15990;SDS011;8100;50.994;4.538;2023-07-29T10:02:24;1.80;;;1.17;;
15990;SDS011;8100;50.994;4.538;2023-07-29T10:05:15;2.17;;;1.10;;
15990;SDS011;8100;50.994;4.538;2023-07-29T10:08:03;1.23;;;1.10;;
15990;SDS011;8100;50.994;4.538;2023-07-29T10:10:51;2.00;;;1.15;;
15990;SDS011;8100;50.994;4.538;2023-07-29T10:13:39;1.30;;;1.00;;
15990;SDS011;8100;50.994;4.538;2023-07-29T10:16:26;2.42;;;1.33;;
15990;SDS011;8100;50.994;4.538;2023-07-29T10:19:13;1.80;;;1.50;;
15990;SDS011;8100;50.994;4.538;2023-07-29T10:22:05;2.55;;;1.50;;
15990;SDS011;8100;50.994;4.538;2023-07-29T10:24:53;1.38;;;1.02;;
15990;SDS011;8100;50.994;4.538;2023-07-29T10:27:43;1.70;;;1.17;;
15990;SDS011;8100;50.994;4.538;2023-07-29T10:30:33;2.00;;;1.27;;
15990;SDS011;8100;50.994;4.538;2023-07-29T10:33:21;1.83;;;1.30;;
15990;SDS011;8100;50.994;4.538;2023-07-29T10:36:08;2.53;;;1.15;;
15990;SDS011;8100;50.994;4.538;2023-07-29T10:38:57;2.50;;;1.08;;
15990;SDS011;8100;50.994;4.538;2023-07-29T10:41:54;1.40;;;1.10;;
15990;SDS011;8100;50.994;4.538;2023-07-29T10:44:46;1.42;;;0.90;;
15990;SDS011;8100;50.994;4.538;2023-07-29T10:47:37;2.88;;;1.20;;
15990;SDS011;8100;50.994;4.538;2023-07-29T10:50:24;1.10;;;1.00;;
15990;SDS011;8100;50.994;4.538;2023-07-29T10:53:13;1.65;;;1.10;;
15990;SDS011;8100;50.994;4.538;2023-07-29T10:56:04;2.08;;;1.00;;
15990;SDS011;8100;50.994;4.538;2023-07-29T10:58:51;1.83;;;1.00;;
15990;SDS011;8100;50.994;4.538;2023-07-29T11:01:39;1.35;;;0.90;;
15990;SDS011;8100;50.994;4.538;2023-07-29T11:04:28;1.55;;;1.02;;
15990;SDS011;8100;50.994;4.538;2023-07-29T11:07:20;3.88;;;1.40;;
15990;SDS011;8100;50.994;4.538;2023-07-29T11:10:14;1.63;;;1.10;;
15990;SDS011;8100;50.994;4.538;2023-07-29T11:13:03;1.50;;;1.00;;
15990;SDS011;8100;50.994;4.538;2023-07-29T11:15:52;2.13;;;1.33;;
15990;SDS011;8100;50.994;4.538;2023-07-29T11:18:40;2.25;;;1.40;;
15990;SDS011;8100;50.994;4.538;2023-07-29T11:21:28;1.92;;;1.40;;
15990;SDS011;8100;50.994;4.538;2023-07-29T11:24:16;3.55;;;1.40;;
15990;SDS011;8100;50.994;4.538;2023-07-29T11:27:05;2.17;;;1.58;;
15990;SDS011;8100;50.994;4.538;2023-07-29T11:29:57;2.95;;;1.90;;
15990;SDS011;8100;50.994;4.538;2023-07-29T11:32:46;7.97;;;2.10;;
15990;SDS011;8100;50.994;4.538;2023-07-29T11:35:33;4.45;;;1.77;;
15990;SDS011;8100;50.994;4.538;2023-07-29T11:38:21;4.28;;;2.03;;
15990;SDS011;8100;50.994;4.538;2023-07-29T11:41:09;5.00;;;2.10;;
15990;SDS011;8100;50.994;4.538;2023-07-29T11:43:56;2.70;;;1.90;;
15990;SDS011;8100;50.994;4.538;2023-07-29T11:46:45;4.15;;;1.88;;
15990;SDS011;8100;50.994;4.538;2023-07-29T11:49:34;3.03;;;1.60;;
15990;SDS011;8100;50.994;4.538;2023-07-29T11:52:22;3.08;;;1.50;;
15990;SDS011;8100;50.994;4.538;2023-07-29T11:55:11;2.65;;;1.45;;
15990;SDS011;8100;50.994;4.538;2023-07-29T11:57:59;2.22;;;1.27;;
15990;SDS011;8100;50.994;4.538;2023-07-29T12:00:48;3.40;;;1.20;;
15990;SDS011;8100;50.994;4.538;2023-07-29T12:03:37;2.00;;;1.40;;
15990;SDS011;8100;50.994;4.538;2023-07-29T12:06:24;2.28;;;1.40;;
15990;SDS011;8100;50.994;4.538;2023-07-29T12:09:12;1.63;;;1.27;;
15990;SDS011;8100;50.994;4.538;2023-07-29T12:12:01;1.27;;;1.10;;
15990;SDS011;8100;50.994;4.538;2023-07-29T12:14:49;1.60;;;1.30;;
15990;SDS011;8100;50.994;4.538;2023-07-29T12:17:39;1.55;;;1.13;;
15990;SDS011;8100;50.994;4.538;2023-07-29T12:20:28;1.23;;;1.10;;
15990;SDS011;8100;50.994;4.538;2023-07-29T12:23:16;1.13;;;1.02;;
15990;SDS011;8100;50.994;4.538;2023-07-29T12:26:11;1.63;;;1.42;;
15990;SDS011;8100;50.994;4.538;2023-07-29T12:28:58;1.42;;;1.10;;
15990;SDS011;8100;50.994;4.538;2023-07-29T12:31:46;1.23;;;1.13;;
15990;SDS011;8100;50.994;4.538;2023-07-29T12:34:33;1.55;;;1.13;;
15990;SDS011;8100;50.994;4.538;2023-07-29T12:37:31;1.63;;;1.20;;
15990;SDS011;8100;50.994;4.538;2023-07-29T12:40:22;3.15;;;1.25;;
15990;SDS011;8100;50.994;4.538;2023-07-29T12:43:09;4.43;;;1.15;;
15990;SDS011;8100;50.994;4.538;2023-07-29T12:45:57;2.10;;;1.00;;
15990;SDS011;8100;50.994;4.538;2023-07-29T12:48:44;1.50;;;0.98;;
15990;SDS011;8100;50.994;4.538;2023-07-29T12:51:31;1.27;;;1.08;;
15990;SDS011;8100;50.994;4.538;2023-07-29T12:54:20;3.00;;;1.40;;
15990;SDS011;8100;50.994;4.538;2023-07-29T12:57:07;1.20;;;1.10;;
15990;SDS011;8100;50.994;4.538;2023-07-29T12:59:54;3.13;;;1.40;;
15990;SDS011;8100;50.994;4.538;2023-07-29T13:02:41;1.40;;;1.10;;
15990;SDS011;8100;50.994;4.538;2023-07-29T13:05:29;1.27;;;1.05;;
15990;SDS011;8100;50.994;4.538;2023-07-29T13:08:16;1.65;;;1.27;;
15990;SDS011;8100;50.994;4.538;2023-07-29T13:11:05;1.63;;;1.30;;
15990;SDS011;8100;50.994;4.538;2023-07-29T13:13:52;1.50;;;1.20;;
15990;SDS011;8100;50.994;4.538;2023-07-29T13:16:39;1.52;;;1.30;;
15990;SDS011;8100;50.994;4.538;2023-07-29T13:19:26;2.15;;;1.25;;
15990;SDS011;8100;50.994;4.538;2023-07-29T13:22:13;1.95;;;1.27;;
15990;SDS011;8100;50.994;4.538;2023-07-29T13:25:01;2.65;;;1.08;;
15990;SDS011;8100;50.994;4.538;2023-07-29T13:27:50;2.10;;;1.63;;
15990;SDS011;8100;50.994;4.538;2023-07-29T13:30:37;2.83;;;1.50;;
15990;SDS011;8100;50.994;4.538;2023-07-29T13:33:24;1.60;;;1.50;;
15990;SDS011;8100;50.994;4.538;2023-07-29T13:36:11;1.42;;;1.25;;
15990;SDS011;8100;50.994;4.538;2023-07-29T13:38:59;1.67;;;1.55;;
15990;SDS011;8100;50.994;4.538;2023-07-29T13:41:46;1.80;;;1.50;;
15990;SDS011;8100;50.994;4.538;2023-07-29T13:44:34;3.80;;;1.33;;
15990;SDS011;8100;50.994;4.538;2023-07-29T13:47:22;3.40;;;1.45;;
15990;SDS011;8100;50.994;4.538;2023-07-29T13:50:09;2.00;;;1.45;;
15990;SDS011;8100;50.994;4.538;2023-07-29T13:52:57;1.63;;;1.52;;
15990;SDS011;8100;50.994;4.538;2023-07-29T13:55:44;2.63;;;1.48;;
15990;SDS011;8100;50.994;4.538;2023-07-29T13:58:32;1.60;;;1.50;;
15990;SDS011;8100;50.994;4.538;2023-07-29T14:01:20;1.60;;;1.50;;
15990;SDS011;8100;50.994;4.538;2023-07-29T14:04:07;2.22;;;1.30;;
15990;SDS011;8100;50.994;4.538;2023-07-29T14:06:54;1.83;;;1.60;;
15990;SDS011;8100;50.994;4.538;2023-07-29T14:09:42;2.17;;;1.48;;
15990;SDS011;8100;50.994;4.538;2023-07-29T14:12:29;1.88;;;1.60;;
15990;SDS011;8100;50.994;4.538;2023-07-29T14:15:16;1.58;;;1.45;;
15990;SDS011;8100;50.994;4.538;2023-07-29T14:18:05;1.80;;;1.67;;
15990;SDS011;8100;50.994;4.538;2023-07-29T14:20:52;1.73;;;1.55;;
15990;SDS011;8100;50.994;4.538;2023-07-29T14:23:40;1.58;;;1.48;;
15990;SDS011;8100;50.994;4.538;2023-07-29T14:26:27;1.13;;;1.05;;
15990;SDS011;8100;50.994;4.538;2023-07-29T14:29:14;2.30;;;1.27;;
15990;SDS011;8100;50.994;4.538;2023-07-29T14:32:01;1.30;;;1.20;;
15990;SDS011;8100;50.994;4.538;2023-07-29T14:34:50;1.55;;;1.25;;
15990;SDS011;8100;50.994;4.538;2023-07-29T14:37:38;1.23;;;1.02;;
15990;SDS011;8100;50.994;4.538;2023-07-29T14:40:25;2.20;;;1.30;;
15990;SDS011;8100;50.994;4.538;2023-07-29T14:43:15;2.10;;;1.25;;
15990;SDS011;8100;50.994;4.538;2023-07-29T14:46:02;2.38;;;1.05;;
15990;SDS011;8100;50.994;4.538;2023-07-29T14:48:50;1.25;;;1.10;;
15990;SDS011;8100;50.994;4.538;2023-07-29T14:51:38;1.63;;;1.15;;
15990;SDS011;8100;50.994;4.538;2023-07-29T14:54:25;1.92;;;1.30;;
15990;SDS011;8100;50.994;4.538;2023-07-29T14:57:12;1.40;;;1.20;;
15990;SDS011;8100;50.994;4.538;2023-07-29T15:00:00;1.90;;;1.00;;
15990;SDS011;8100;50.994;4.538;2023-07-29T15:02:47;9.25;;;1.48;;
15990;SDS011;8100;50.994;4.538;2023-07-29T15:05:34;1.27;;;1.17;;
15990;SDS011;8100;50.994;4.538;2023-07-29T15:08:23;1.00;;;0.82;;
15990;SDS011;8100;50.994;4.538;2023-07-29T15:11:12;1.42;;;1.20;;
15990;SDS011;8100;50.994;4.538;2023-07-29T15:13:59;1.25;;;1.15;;
15990;SDS011;8100;50.994;4.538;2023-07-29T15:16:49;1.73;;;1.35;;
15990;SDS011;8100;50.994;4.538;2023-07-29T15:19:36;1.20;;;1.10;;
15990;SDS011;8100;50.994;4.538;2023-07-29T15:22:23;1.95;;;1.75;;
15990;SDS011;8100;50.994;4.538;2023-07-29T15:25:12;3.40;;;1.27;;
15990;SDS011;8100;50.994;4.538;2023-07-29T15:27:59;2.60;;;1.60;;
15990;SDS011;8100;50.994;4.538;2023-07-29T15:30:47;1.92;;;1.33;;
15990;SDS011;8100;50.994;4.538;2023-07-29T15:33:34;1.55;;;1.38;;
15990;SDS011;8100;50.994;4.538;2023-07-29T15:36:21;1.90;;;1.45;;
15990;SDS011;8100;50.994;4.538;2023-07-29T15:39:09;2.17;;;1.30;;
15990;SDS011;8100;50.994;4.538;2023-07-29T15:41:57;1.90;;;1.17;;
15990;SDS011;8100;50.994;4.538;2023-07-29T15:44:45;1.60;;;1.30;;
15990;SDS011;8100;50.994;4.538;2023-07-29T15:47:32;2.17;;;1.20;;
15990;SDS011;8100;50.994;4.538;2023-07-29T15:50:19;2.38;;;1.33;;
15990;SDS011;8100;50.994;4.538;2023-07-29T15:53:06;1.80;;;1.40;;
15990;SDS011;8100;50.994;4.538;2023-07-29T15:55:54;2.38;;;1.25;;
15990;SDS011;8100;50.994;4.538;2023-07-29T15:58:42;1.30;;;1.20;;
15990;SDS011;8100;50.994;4.538;2023-07-29T16:01:29;3.38;;;1.02;;
15990;SDS011;8100;50.994;4.538;2023-07-29T16:04:17;2.15;;;1.65;;
15990;SDS011;8100;50.994;4.538;2023-07-29T16:07:04;1.10;;;1.00;;
15990;SDS011;8100;50.994;4.538;2023-07-29T16:09:52;1.30;;;1.10;;
15990;SDS011;8100;50.994;4.538;2023-07-29T16:12:39;0.82;;;0.80;;
15990;SDS011;8100;50.994;4.538;2023-07-29T16:15:27;1.45;;;1.10;;
15990;SDS011;8100;50.994;4.538;2023-07-29T16:18:15;2.00;;;1.30;;
15990;SDS011;8100;50.994;4.538;2023-07-29T16:21:02;1.23;;;1.00;;
15990;SDS011;8100;50.994;4.538;2023-07-29T16:23:49;1.65;;;1.00;;
15990;SDS011;8100;50.994;4.538;2023-07-29T16:26:38;0.90;;;0.85;;
15990;SDS011;8100;50.994;4.538;2023-07-29T16:29:25;1.00;;;0.90;;
15990;SDS011;8100;50.994;4.538;2023-07-29T16:32:14;1.15;;;0.93;;
15990;SDS011;8100;50.994;4.538;2023-07-29T16:35:02;1.30;;;1.10;;
15990;SDS011;8100;50.994;4.538;2023-07-29T16:37:49;1.10;;;1.00;;
15990;SDS011;8100;50.994;4.538;2023-07-29T16:40:36;1.00;;;0.90;;
15990;SDS011;8100;50.994;4.538;2023-07-29T16:43:24;1.33;;;1.02;;
15990;SDS011;8100;50.994;4.538;2023-07-29T16:46:11;1.65;;;0.95;;
15990;SDS011;8100;50.994;4.538;2023-07-29T16:48:59;2.75;;;1.10;;
15990;SDS011;8100;50.994;4.538;2023-07-29T16:51:48;1.15;;;1.00;;
15990;SDS011;8100;50.994;4.538;2023-07-29T16:54:35;2.50;;;1.17;;
15990;SDS011;8100;50.994;4.538;2023-07-29T16:57:23;1.90;;;1.02;;
15990;SDS011;8100;50.994;4.538;2023-07-29T17:00:11;0.73;;;0.73;;
15990;SDS011;8100;50.994;4.538;2023-07-29T17:02:59;2.78;;;0.98;;
15990;SDS011;8100;50.994;4.538;2023-07-29T17:05:47;1.73;;;0.80;;